Time;durP1;ratioP1;P1;durP2;ratioP2;P2;SDS_P1;SDS_P2;PMS_P1;PMS_P2;Temp;Humidity;BMP_temperature;BMP_pressure;BME280_temperature;BME280_humidity;BME280_pressure;Samples;Min_cycle;Max_cycle;Signal;HPM_P1;HPM_P2
2022/12/12 00:02:14;;;;;;;;;;;-2.20;99.90;;;;;;5021122;28;19913;-66
2022/12/12 00:04:40;;;;;;;;;;;-2.20;99.90;;;;;;5026702;28;19913;-67
2022/12/12 00:07:06;;;;;;;;;;;-2.30;99.90;;;;;;5025989;28;19951;-67
2022/12/12 00:09:31;;;;;;;;;;;-2.30;99.90;;;;;;5007387;28;19922;-69
2022/12/12 00:11:57;;;;;;;;;;;-2.30;99.90;;;;;;5026445;28;19927;-66
2022/12/12 00:14:23;;;;;;;;;;;-2.30;99.90;;;;;;5008008;28;19913;-66
2022/12/12 00:16:48;;;;;;;;;;;-2.30;99.90;;;;;;5028416;28;19979;-67
2022/12/12 00:19:14;;;;;;;;;;;-2.40;99.90;;;;;;5029534;28;20007;-66
2022/12/12 00:21:40;;;;;;;;;;;-2.40;99.90;;;;;;5026004;28;19960;-67
2022/12/12 00:24:05;;;;;;;;;;;-2.40;99.90;;;;;;5028773;28;19921;-67
2022/12/12 00:26:32;;;;;;;;;;;-2.40;99.90;;;;;;5011866;28;19917;-67
2022/12/12 00:28:57;;;;;;;;;;;-2.40;99.90;;;;;;5011655;28;19913;-67
2022/12/12 00:31:23;;;;;;;;;;;-2.40;99.90;;;;;;5026781;28;19917;-68
2022/12/12 00:33:49;;;;;;;;;;;-2.50;99.90;;;;;;5027997;28;19924;-67
2022/12/12 00:36:15;;;;;;;;;;;-2.50;99.90;;;;;;5027709;28;19912;-67
2022/12/12 00:38:41;;;;;;;;;;;-2.50;99.90;;;;;;4992218;28;19947;-66
2022/12/12 00:41:06;;;;;;;;;;;-2.50;99.90;;;;;;5026380;28;19952;-68
2022/12/12 00:43:32;;;;;;;;;;;-2.50;99.90;;;;;;5027127;28;20330;-68
2022/12/12 00:45:58;;;;;;;;;;;-2.50;99.90;;;;;;5005624;28;19913;-67
2022/12/12 00:48:23;;;;;;;;;;;-2.50;99.90;;;;;;5025911;28;19940;-67
2022/12/12 00:50:49;;;;;;;;;;;-2.60;99.90;;;;;;5027839;28;19908;-69
2022/12/12 00:53:15;;;;;;;;;;;-2.60;99.90;;;;;;5027719;28;19924;-68
2022/12/12 00:55:41;;;;;;;;;;;-2.60;99.90;;;;;;5027918;28;19913;-68
2022/12/12 00:58:06;;;;;;;;;;;-2.60;99.90;;;;;;5027736;28;19913;-68
2022/12/12 01:00:32;;;;;;;;;;;-2.70;99.90;;;;;;5025977;28;20254;-68
2022/12/12 01:02:58;;;;;;;;;;;-2.70;99.90;;;;;;5024971;28;19974;-68
2022/12/12 01:05:23;;;;;;;;;;;-2.80;99.90;;;;;;5026423;28;20013;-67
2022/12/12 01:07:49;;;;;;;;;;;-2.80;99.90;;;;;;5002762;28;19959;-67
2022/12/12 01:10:15;;;;;;;;;;;-2.80;99.90;;;;;;5027789;28;20502;-67
2022/12/12 01:12:41;;;;;;;;;;;-2.90;99.90;;;;;;5028635;28;19928;-67
2022/12/12 01:15:07;;;;;;;;;;;-3.00;99.90;;;;;;5024665;28;19979;-67
2022/12/12 01:17:36;;;;;;;;;;;-3.00;99.90;;;;;;5032366;28;19913;-68
2022/12/12 01:20:05;;;;;;;;;;;-3.00;99.90;;;;;;5028076;28;20306;-67
2022/12/12 01:22:31;;;;;;;;;;;-3.00;99.90;;;;;;5029934;28;19909;-67
2022/12/12 01:24:57;;;;;;;;;;;-3.00;99.90;;;;;;5032627;28;20004;-67
2022/12/12 01:27:22;;;;;;;;;;;-3.00;99.90;;;;;;5030263;28;19944;-68
2022/12/12 01:29:48;;;;;;;;;;;-3.00;99.90;;;;;;5032077;28;20307;-67
2022/12/12 01:32:14;;;;;;;;;;;-3.00;99.90;;;;;;5024829;28;19982;-67
2022/12/12 01:34:39;;;;;;;;;;;-2.90;99.90;;;;;;5031016;28;19913;-67
2022/12/12 01:37:05;;;;;;;;;;;-2.90;99.90;;;;;;5031615;28;20353;-68
2022/12/12 01:39:31;;;;;;;;;;;-2.90;99.90;;;;;;5031307;28;19921;-67
2022/12/12 01:41:56;;;;;;;;;;;-2.90;99.90;;;;;;5025560;28;19923;-67
2022/12/12 01:45:01;;;;;;;;;;;-2.80;99.90;;;;;;5030740;28;20011;-68
2022/12/12 01:47:27;;;;;;;;;;;-2.80;99.90;;;;;;5028681;28;19928;-67
2022/12/12 01:49:53;;;;;;;;;;;-2.80;99.90;;;;;;5011958;28;20337;-68
2022/12/12 01:52:21;;;;;;;;;;;-2.80;99.90;;;;;;5019193;28;20390;-67
2022/12/12 01:54:48;;;;;;;;;;;-2.70;99.90;;;;;;5030442;28;19940;-67
2022/12/12 01:57:14;;;;;;;;;;;-2.80;99.90;;;;;;5027179;28;19934;-68
2022/12/12 01:59:40;;;;;;;;;;;-2.80;99.90;;;;;;5027986;28;19944;-68
2022/12/12 02:02:06;;;;;;;;;;;-2.80;99.90;;;;;;5030104;28;20014;-67
2022/12/12 02:04:31;;;;;;;;;;;-2.80;99.90;;;;;;5028933;28;19941;-66
2022/12/12 02:06:57;;;;;;;;;;;-2.80;99.90;;;;;;5028831;28;19919;-67
2022/12/12 02:09:23;;;;;;;;;;;-2.80;99.90;;;;;;5030881;28;20011;-67
2022/12/12 02:11:53;;;;;;;;;;;-2.80;99.90;;;;;;5030171;28;19917;-66
2022/12/12 02:14:21;;;;;;;;;;;-2.80;99.90;;;;;;5011832;28;20320;-67
2022/12/12 02:17:05;;;;;;;;;;;-2.80;99.90;;;;;;5026236;28;19913;-67
2022/12/12 02:19:31;;;;;;;;;;;-2.80;99.90;;;;;;5031007;28;19913;-67
2022/12/12 02:22:23;;;;;;;;;;;-2.80;99.90;;;;;;5031585;28;19913;-66
2022/12/12 02:25:07;;;;;;;;;;;-2.70;99.90;;;;;;5019289;28;19909;-66
2022/12/12 02:27:33;;;;;;;;;;;-2.70;99.90;;;;;;5031096;28;19913;-66
2022/12/12 02:29:58;;;;;;;;;;;-2.70;99.90;;;;;;5030134;28;20303;-66
2022/12/12 02:32:46;;;;;;;;;;;-2.70;99.90;;;;;;5030591;28;19916;-67
2022/12/12 02:35:30;;;;;;;;;;;-2.70;99.90;;;;;;5020812;28;19913;-67
2022/12/12 02:38:14;;;;;;;;;;;-2.80;99.90;;;;;;5024950;28;19913;-66
2022/12/12 02:40:57;;;;;;;;;;;-2.80;99.90;;;;;;5029907;28;20637;-66
2022/12/12 02:43:38;;;;;;;;;;;-2.80;99.90;;;;;;5029673;28;19913;-65
2022/12/12 02:46:09;;;;;;;;;;;-2.90;99.90;;;;;;5023134;28;19924;-66
2022/12/12 02:48:55;;;;;;;;;;;-2.90;99.90;;;;;;5026590;28;19913;-65
2022/12/12 02:51:20;;;;;;;;;;;-2.80;99.90;;;;;;5030365;28;19917;-66
2022/12/12 02:53:46;;;;;;;;;;;-2.80;99.90;;;;;;5013638;28;20349;-65
2022/12/12 02:56:30;;;;;;;;;;;-2.90;99.90;;;;;;5030805;28;19917;-66
2022/12/12 02:58:57;;;;;;;;;;;-2.90;99.90;;;;;;5026003;28;20003;-65
2022/12/12 03:01:26;;;;;;;;;;;-2.90;99.90;;;;;;5026565;28;19927;-65
2022/12/12 03:09:36;;;;;;;;;;;-2.80;99.90;;;;;;5029930;28;19913;-67
2022/12/12 03:12:07;;;;;;;;;;;-2.80;99.90;;;;;;5023706;28;20554;-67
2022/12/12 03:14:38;;;;;;;;;;;-2.70;99.90;;;;;;5023888;28;19917;-66
2022/12/12 03:17:07;;;;;;;;;;;-2.70;99.90;;;;;;5010979;28;19913;-65
2022/12/12 03:19:37;;;;;;;;;;;-2.70;99.90;;;;;;5026079;28;19912;-65
2022/12/12 03:22:10;;;;;;;;;;;-2.70;99.90;;;;;;5002653;28;19928;-66
2022/12/12 03:24:39;;;;;;;;;;;-2.70;99.90;;;;;;5025515;28;20000;-66
2022/12/12 03:27:09;;;;;;;;;;;-2.70;99.90;;;;;;5028656;28;19949;-65
2022/12/12 03:29:48;;;;;;;;;;;-2.70;99.90;;;;;;5024859;28;19913;-65
2022/12/12 03:32:16;;;;;;;;;;;-2.70;99.90;;;;;;5022853;28;20318;-67
2022/12/12 03:34:42;;;;;;;;;;;-2.70;99.90;;;;;;5028812;28;20382;-65
2022/12/12 03:37:09;;;;;;;;;;;-2.70;99.90;;;;;;5028988;28;19917;-65
2022/12/12 03:39:35;;;;;;;;;;;-2.70;99.90;;;;;;5023356;28;19928;-66
2022/12/12 03:42:04;;;;;;;;;;;-2.70;99.90;;;;;;5029030;28;19912;-65
2022/12/12 03:44:47;;;;;;;;;;;-2.80;99.90;;;;;;5027266;28;19917;-65
2022/12/12 03:47:18;;;;;;;;;;;-2.80;99.90;;;;;;5024057;28;19913;-66
2022/12/12 03:50:01;;;;;;;;;;;-2.80;99.90;;;;;;5027363;28;19917;-65
2022/12/12 03:52:32;;;;;;;;;;;-2.80;99.90;;;;;;5023989;28;19917;-66
2022/12/12 03:54:57;;;;;;;;;;;-2.80;99.90;;;;;;5023670;28;19921;-65
2022/12/12 03:57:25;;;;;;;;;;;-2.80;99.90;;;;;;5029641;28;19924;-66
2022/12/12 03:59:53;;;;;;;;;;;-2.80;99.90;;;;;;5028526;28;19913;-65
2022/12/12 04:02:21;;;;;;;;;;;-2.90;99.90;;;;;;5026700;28;19979;-65
2022/12/12 04:04:46;;;;;;;;;;;-3.00;99.90;;;;;;5028290;28;20030;-65
2022/12/12 04:07:19;;;;;;;;;;;-3.00;99.90;;;;;;5029006;28;19971;-65
2022/12/12 04:12:59;;;;;;;;;;;-3.10;99.90;;;;;;5028354;28;19917;-65
2022/12/12 04:15:47;;;;;;;;;;;-3.00;99.90;;;;;;5024493;28;19975;-65
2022/12/12 04:18:12;;;;;;;;;;;-3.00;99.90;;;;;;5027136;28;19917;-66
2022/12/12 04:23:37;;;;;;;;;;;-2.90;99.90;;;;;;5026765;28;19948;-65
2022/12/12 04:28:57;;;;;;;;;;;-2.80;99.90;;;;;;5014564;28;20019;-65
2022/12/12 04:31:24;;;;;;;;;;;-2.80;99.90;;;;;;5022772;28;19917;-65
2022/12/12 04:33:49;;;;;;;;;;;-2.80;99.90;;;;;;5025884;28;20523;-65
2022/12/12 04:36:15;;;;;;;;;;;-2.80;99.90;;;;;;5009109;28;19914;-65
2022/12/12 04:38:41;;;;;;;;;;;-2.70;99.90;;;;;;5023772;28;19995;-65
2022/12/12 04:41:07;;;;;;;;;;;-2.70;99.90;;;;;;5028641;28;19913;-66
2022/12/12 04:43:33;;;;;;;;;;;-2.80;99.90;;;;;;5024798;28;20274;-65
2022/12/12 04:46:03;;;;;;;;;;;-2.80;99.90;;;;;;5010165;28;19913;-66
2022/12/12 04:48:49;;;;;;;;;;;-2.80;99.90;;;;;;5027679;28;19952;-66
2022/12/12 04:51:15;;;;;;;;;;;-2.80;99.90;;;;;;5010693;28;19925;-66
2022/12/12 04:53:43;;;;;;;;;;;-2.90;99.90;;;;;;5025226;28;19956;-66
2022/12/12 04:56:10;;;;;;;;;;;-3.00;99.90;;;;;;5026079;28;19949;-66
2022/12/12 04:58:36;;;;;;;;;;;-2.90;99.90;;;;;;5030577;28;19913;-66
2022/12/12 05:01:14;;;;;;;;;;;-2.90;99.90;;;;;;5026915;28;19978;-66
2022/12/12 05:03:40;;;;;;;;;;;-2.90;99.90;;;;;;5030658;28;19913;-66
2022/12/12 05:06:07;;;;;;;;;;;-2.80;99.90;;;;;;5027512;28;19944;-66
2022/12/12 05:08:37;;;;;;;;;;;-2.80;99.90;;;;;;5031827;28;20414;-65
2022/12/12 05:11:03;;;;;;;;;;;-2.70;99.90;;;;;;5032265;28;19986;-67
2022/12/12 05:13:33;;;;;;;;;;;-2.70;99.90;;;;;;5030497;28;20312;-66
2022/12/12 05:15:59;;;;;;;;;;;-2.60;99.90;;;;;;5015098;28;19935;-65
2022/12/12 05:18:25;;;;;;;;;;;-2.60;99.90;;;;;;5031403;28;19919;-66
2022/12/12 05:20:50;;;;;;;;;;;-2.60;99.90;;;;;;5031545;28;19913;-66
2022/12/12 05:23:16;;;;;;;;;;;-2.60;99.90;;;;;;5030565;28;19912;-66
2022/12/12 05:25:41;;;;;;;;;;;-2.50;99.90;;;;;;5028934;28;19947;-66
2022/12/12 05:28:07;;;;;;;;;;;-2.50;99.90;;;;;;5008999;28;19913;-67
2022/12/12 05:30:36;;;;;;;;;;;-2.50;99.90;;;;;;5029411;28;20003;-66
2022/12/12 05:33:02;;;;;;;;;;;-2.50;99.90;;;;;;4996870;28;19924;-65
2022/12/12 05:35:27;;;;;;;;;;;-2.50;99.90;;;;;;5029075;28;19916;-66
2022/12/12 05:37:53;;;;;;;;;;;-2.60;99.90;;;;;;5030393;28;19913;-66
2022/12/12 05:40:19;;;;;;;;;;;-2.60;99.90;;;;;;5026253;28;19921;-66
2022/12/12 05:42:44;;;;;;;;;;;-2.60;99.90;;;;;;4998397;28;19913;-66
2022/12/12 05:45:10;;;;;;;;;;;-2.60;99.90;;;;;;5031341;28;19913;-66
2022/12/12 05:47:36;;;;;;;;;;;-2.70;99.90;;;;;;5027461;28;19940;-66
2022/12/12 05:50:01;;;;;;;;;;;-2.80;99.90;;;;;;5025540;28;19917;-65
2022/12/12 05:52:27;;;;;;;;;;;-2.90;99.90;;;;;;4997694;28;19921;-66
2022/12/12 05:54:53;;;;;;;;;;;-2.90;99.90;;;;;;5026162;28;20027;-65
2022/12/12 05:57:18;;;;;;;;;;;-2.90;99.90;;;;;;5031510;28;20258;-65
2022/12/12 05:59:45;;;;;;;;;;;-2.80;99.90;;;;;;5027699;28;20657;-65
2022/12/12 06:02:10;;;;;;;;;;;-2.70;99.90;;;;;;5008368;28;19913;-65
2022/12/12 06:04:36;;;;;;;;;;;-2.70;99.90;;;;;;5029334;28;19917;-66
2022/12/12 06:07:02;;;;;;;;;;;-2.60;99.90;;;;;;5029506;28;19917;-66
2022/12/12 06:09:27;;;;;;;;;;;-2.60;99.90;;;;;;5031642;28;19913;-66
2022/12/12 06:11:53;;;;;;;;;;;-2.50;99.90;;;;;;5029943;28;19917;-66
2022/12/12 06:14:19;;;;;;;;;;;-2.50;99.90;;;;;;5031754;28;19977;-66
2022/12/12 06:16:44;;;;;;;;;;;-2.50;99.90;;;;;;5031194;28;19913;-65
2022/12/12 06:19:10;;;;;;;;;;;-2.50;99.90;;;;;;5030007;28;19971;-66
2022/12/12 06:21:35;;;;;;;;;;;-2.40;99.90;;;;;;5031622;28;19913;-65
2022/12/12 06:24:01;;;;;;;;;;;-2.40;99.90;;;;;;5010791;28;19913;-66
2022/12/12 06:26:27;;;;;;;;;;;-2.40;99.90;;;;;;5030106;28;20362;-65
2022/12/12 06:28:52;;;;;;;;;;;-2.40;99.90;;;;;;5030277;28;19952;-66
2022/12/12 06:31:18;;;;;;;;;;;-2.50;99.90;;;;;;5029903;28;20405;-66
2022/12/12 06:33:44;;;;;;;;;;;-2.50;99.90;;;;;;5029935;28;19917;-66
2022/12/12 06:36:22;;;;;;;;;;;-2.60;99.90;;;;;;5029059;28;19948;-65
2022/12/12 06:38:52;;;;;;;;;;;-2.50;99.90;;;;;;4998214;28;20242;-66
2022/12/12 06:41:18;;;;;;;;;;;-2.50;99.90;;;;;;5031404;28;20007;-66
2022/12/12 06:43:43;;;;;;;;;;;-2.50;99.90;;;;;;5030154;28;20004;-65
2022/12/12 06:46:11;;;;;;;;;;;-2.40;99.90;;;;;;5027399;28;20538;-65
2022/12/12 06:48:37;;;;;;;;;;;-2.50;99.90;;;;;;5030107;28;20028;-65
2022/12/12 06:51:06;;;;;;;;;;;-2.50;99.90;;;;;;5030845;28;19932;-66
2022/12/12 06:53:31;;;;;;;;;;;-2.50;99.90;;;;;;5026823;28;19952;-66
2022/12/12 06:55:57;;;;;;;;;;;-2.50;99.90;;;;;;5030128;28;19963;-66
2022/12/12 06:58:23;;;;;;;;;;;-2.40;99.90;;;;;;5030137;28;19946;-65
2022/12/12 07:00:52;;;;;;;;;;;-2.40;99.90;;;;;;5031098;28;19909;-66
2022/12/12 07:03:17;;;;;;;;;;;-2.50;99.90;;;;;;5033318;28;19923;-65
2022/12/12 07:05:44;;;;;;;;;;;-2.50;99.90;;;;;;5029974;28;20317;-66
2022/12/12 07:08:09;;;;;;;;;;;-2.50;99.90;;;;;;5028241;28;19925;-66
2022/12/12 07:10:35;;;;;;;;;;;-2.50;99.90;;;;;;5030402;28;20536;-66
2022/12/12 07:13:01;;;;;;;;;;;-2.50;99.90;;;;;;5024620;28;19917;-68
2022/12/12 07:15:26;;;;;;;;;;;-2.50;99.90;;;;;;5013639;28;19917;-65
2022/12/12 07:17:55;;;;;;;;;;;-2.40;99.90;;;;;;5038080;28;19918;-67
2022/12/12 07:20:21;;;;;;;;;;;-2.40;99.90;;;;;;5043026;28;20521;-66
2022/12/12 07:22:46;;;;;;;;;;;-2.40;99.90;;;;;;5030158;28;19909;-65
2022/12/12 07:25:12;;;;;;;;;;;-2.40;99.90;;;;;;5029981;28;19924;-65
2022/12/12 07:27:38;;;;;;;;;;;-2.40;99.90;;;;;;5029198;28;20318;-65
2022/12/12 07:30:03;;;;;;;;;;;-2.50;99.90;;;;;;5023601;28;20003;-66
2022/12/12 07:32:29;;;;;;;;;;;-2.40;99.90;;;;;;5029556;28;20031;-66
2022/12/12 07:34:55;;;;;;;;;;;-2.40;99.90;;;;;;5030486;28;20003;-67
2022/12/12 07:37:21;;;;;;;;;;;-2.40;99.90;;;;;;5005992;28;20243;-66
2022/12/12 07:39:46;;;;;;;;;;;-2.40;99.90;;;;;;5025824;28;19921;-66
2022/12/12 07:42:12;;;;;;;;;;;-2.40;99.90;;;;;;5025607;28;19917;-67
2022/12/12 07:44:37;;;;;;;;;;;-2.40;99.90;;;;;;5030447;28;19913;-66
2022/12/12 07:47:03;;;;;;;;;;;-2.60;99.90;;;;;;5029409;28;20000;-71
2022/12/12 07:49:29;;;;;;;;;;;-2.50;99.90;;;;;;5029508;28;19909;-71
2022/12/12 07:51:55;;;;;;;;;;;-2.40;99.90;;;;;;5027719;28;19982;-71
2022/12/12 07:54:20;;;;;;;;;;;-2.40;99.90;;;;;;5028236;28;19913;-71
2022/12/12 07:56:46;;;;;;;;;;;-2.40;99.90;;;;;;5023946;28;19966;-70
2022/12/12 07:59:11;;;;;;;;;;;-2.40;99.90;;;;;;5006219;28;19910;-70
2022/12/12 08:01:37;;;;;;;;;;;-2.40;99.90;;;;;;5003168;28;20341;-70
2022/12/12 08:04:03;;;;;;;;;;;-2.40;99.90;;;;;;5026585;28;19912;-71
2022/12/12 08:06:29;;;;;;;;;;;-2.40;99.90;;;;;;5029279;28;20460;-70
2022/12/12 08:08:54;;;;;;;;;;;-2.30;99.90;;;;;;5029846;28;19912;-70
2022/12/12 08:11:21;;;;;;;;;;;-2.30;99.90;;;;;;5025526;28;19913;-71
2022/12/12 08:13:46;;;;;;;;;;;-2.40;99.90;;;;;;5028546;28;19913;-71
2022/12/12 08:16:13;;;;;;;;;;;-2.30;99.90;;;;;;5009943;28;19936;-71
2022/12/12 08:18:39;;;;;;;;;;;-2.30;99.90;;;;;;5028138;28;20023;-71
2022/12/12 08:21:09;;;;;;;;;;;-2.20;99.90;;;;;;5028390;28;20385;-71
2022/12/12 08:23:34;;;;;;;;;;;-2.20;99.90;;;;;;5028577;28;19913;-71
2022/12/12 08:26:04;;;;;;;;;;;-2.20;99.90;;;;;;5027784;28;20346;-71
2022/12/12 08:28:30;;;;;;;;;;;-2.10;99.90;;;;;;5028828;28;20357;-71
2022/12/12 08:30:55;;;;;;;;;;;-2.10;99.90;;;;;;4999680;28;19913;-71
2022/12/12 08:33:21;;;;;;;;;;;-2.10;99.90;;;;;;5027767;28;19942;-71
2022/12/12 08:35:46;;;;;;;;;;;-2.00;99.90;;;;;;5027706;28;19923;-71
2022/12/12 08:38:12;;;;;;;;;;;-2.00;99.90;;;;;;5029267;28;19917;-71
2022/12/12 08:40:38;;;;;;;;;;;-2.00;99.90;;;;;;5023712;28;19917;-71
2022/12/12 08:43:04;;;;;;;;;;;-2.00;99.90;;;;;;5029341;28;19924;-72
2022/12/12 08:45:29;;;;;;;;;;;-1.90;99.90;;;;;;5010851;28;19913;-71
2022/12/12 08:47:55;;;;;;;;;;;-1.90;99.90;;;;;;5024660;28;20386;-71
2022/12/12 08:50:20;;;;;;;;;;;-1.90;99.90;;;;;;5028098;28;19913;-71
2022/12/12 08:52:46;;;;;;;;;;;-1.90;99.90;;;;;;5007918;28;19916;-71
2022/12/12 08:55:12;;;;;;;;;;;-1.80;99.90;;;;;;5012312;28;19917;-71
2022/12/12 08:57:37;;;;;;;;;;;-1.90;99.90;;;;;;5025313;28;19915;-71
2022/12/12 09:00:03;;;;;;;;;;;-1.90;99.90;;;;;;5029494;28;20318;-72
2022/12/12 09:02:29;;;;;;;;;;;-1.90;99.90;;;;;;5030497;28;19913;-71
2022/12/12 09:04:55;;;;;;;;;;;-1.90;99.90;;;;;;5029634;28;19913;-71
2022/12/12 09:07:20;;;;;;;;;;;-1.80;99.90;;;;;;5027653;28;19924;-71
2022/12/12 09:09:46;;;;;;;;;;;-1.80;99.90;;;;;;5027642;28;19917;-71
2022/12/12 09:12:12;;;;;;;;;;;-1.80;99.90;;;;;;5029148;28;19920;-72
2022/12/12 09:14:37;;;;;;;;;;;-1.80;99.90;;;;;;5028791;28;20354;-72
2022/12/12 09:17:03;;;;;;;;;;;-1.70;99.90;;;;;;5026911;28;19912;-71
2022/12/12 09:19:29;;;;;;;;;;;-1.70;99.90;;;;;;5027597;28;19913;-71
2022/12/12 09:21:54;;;;;;;;;;;-1.70;99.90;;;;;;5011268;28;20005;-72
2022/12/12 09:24:20;;;;;;;;;;;-1.60;99.90;;;;;;5027987;28;19913;-71
2022/12/12 09:26:45;;;;;;;;;;;-1.60;99.90;;;;;;5011516;28;19923;-71
2022/12/12 09:29:11;;;;;;;;;;;-1.60;99.90;;;;;;5026975;28;19913;-71
2022/12/12 09:31:37;;;;;;;;;;;-1.60;99.90;;;;;;5027444;28;19917;-72
2022/12/12 09:34:03;;;;;;;;;;;-1.60;99.90;;;;;;5027164;28;20022;-71
2022/12/12 09:36:28;;;;;;;;;;;-1.60;99.90;;;;;;5028878;28;19924;-70
2022/12/12 09:38:54;;;;;;;;;;;-1.50;99.90;;;;;;5029167;28;20724;-71
2022/12/12 09:41:20;;;;;;;;;;;-1.50;99.90;;;;;;5030083;28;19913;-71
2022/12/12 09:43:53;;;;;;;;;;;-1.50;99.90;;;;;;5032541;28;19983;-71
2022/12/12 09:46:30;;;;;;;;;;;-1.40;99.90;;;;;;5027239;28;20394;-71
2022/12/12 09:48:59;;;;;;;;;;;-1.40;99.90;;;;;;5031553;28;20040;-71
2022/12/12 09:51:24;;;;;;;;;;;-1.30;99.90;;;;;;5031156;28;20246;-71
2022/12/12 09:53:50;;;;;;;;;;;-1.30;99.90;;;;;;5031978;28;19912;-73
2022/12/12 09:56:32;;;;;;;;;;;-1.20;99.90;;;;;;5024026;28;19971;-73
2022/12/12 09:58:59;;;;;;;;;;;-1.20;99.90;;;;;;5025565;28;19949;-73
2022/12/12 10:01:40;;;;;;;;;;;-1.20;99.90;;;;;;5014062;28;19923;-73
2022/12/12 10:04:11;;;;;;;;;;;-1.20;99.90;;;;;;5014875;28;19913;-72
2022/12/12 10:06:40;;;;;;;;;;;-1.10;99.90;;;;;;5031198;28;19963;-72
2022/12/12 10:09:24;;;;;;;;;;;-1.10;99.90;;;;;;5031328;28;20319;-72
2022/12/12 10:11:50;;;;;;;;;;;-1.10;99.90;;;;;;5028863;28;19916;-72
2022/12/12 10:14:27;;;;;;;;;;;-1.10;99.90;;;;;;5026922;28;19916;-72
2022/12/12 10:16:52;;;;;;;;;;;-1.00;99.90;;;;;;5031965;28;19925;-72
2022/12/12 10:19:19;;;;;;;;;;;-1.00;99.90;;;;;;5029730;28;19974;-71
2022/12/12 10:21:45;;;;;;;;;;;-1.00;99.90;;;;;;5014470;28;20453;-73
2022/12/12 10:24:26;;;;;;;;;;;-1.00;99.90;;;;;;5007510;28;19955;-72
2022/12/12 10:26:53;;;;;;;;;;;-1.00;99.90;;;;;;5031282;28;19913;-72
2022/12/12 10:29:19;;;;;;;;;;;-1.10;99.90;;;;;;5027776;28;19999;-72
2022/12/12 10:31:49;;;;;;;;;;;-1.10;99.90;;;;;;5025913;28;19913;-72
2022/12/12 10:34:14;;;;;;;;;;;-1.00;99.90;;;;;;5023751;28;19956;-71
2022/12/12 10:36:59;;;;;;;;;;;-1.10;99.90;;;;;;5031348;28;19956;-72
2022/12/12 10:39:43;;;;;;;;;;;-1.00;99.90;;;;;;5023324;28;19925;-72
2022/12/12 10:42:13;;;;;;;;;;;-1.00;99.90;;;;;;5031659;28;20024;-72
2022/12/12 10:44:51;;;;;;;;;;;-0.70;99.90;;;;;;5014029;28;19917;-73
2022/12/12 10:47:16;;;;;;;;;;;-0.40;99.90;;;;;;5025027;28;19909;-71
2022/12/12 10:49:42;;;;;;;;;;;-0.20;99.90;;;;;;5028170;28;19924;-71
2022/12/12 10:52:16;;;;;;;;;;;0.00;99.90;;;;;;5030481;28;19920;-71
2022/12/12 10:54:43;;;;;;;;;;;0.10;99.90;;;;;;5018536;28;19913;-72
2022/12/12 10:57:10;;;;;;;;;;;0.20;99.90;;;;;;5027332;28;20611;-73
2022/12/12 10:59:55;;;;;;;;;;;0.30;99.90;;;;;;5025831;28;20031;-72
2022/12/12 11:02:26;;;;;;;;;;;0.50;99.90;;;;;;5029625;28;19913;-72
2022/12/12 11:04:59;;;;;;;;;;;0.60;99.90;;;;;;5014700;28;19924;-72
2022/12/12 11:07:24;;;;;;;;;;;0.90;99.90;;;;;;5014147;28;19935;-72
2022/12/12 11:09:50;;;;;;;;;;;1.10;99.90;;;;;;5024760;28;20319;-72
2022/12/12 11:12:16;;;;;;;;;;;1.10;99.90;;;;;;5030370;28;20655;-72
2022/12/12 11:14:45;;;;;;;;;;;1.00;99.90;;;;;;5030477;28;19916;-66
2022/12/12 11:17:21;;;;;;;;;;;1.10;99.90;;;;;;5012808;28;19986;-66
2022/12/12 11:19:47;;;;;;;;;;;1.30;99.90;;;;;;5008455;28;19921;-67
2022/12/12 11:22:12;;;;;;;;;;;1.70;99.90;;;;;;5020229;28;19983;-67
2022/12/12 11:24:39;;;;;;;;;;;1.90;99.90;;;;;;5029761;28;20319;-71
2022/12/12 11:27:05;;;;;;;;;;;2.00;99.90;;;;;;5022681;28;19924;-71
2022/12/12 11:29:37;;;;;;;;;;;2.10;99.90;;;;;;5009730;28;19913;-71
2022/12/12 11:32:03;;;;;;;;;;;2.10;99.90;;;;;;5028236;28;19968;-71
2022/12/12 11:34:28;;;;;;;;;;;1.80;99.90;;;;;;5029439;28;19972;-71
2022/12/12 11:36:54;;;;;;;;;;;1.70;99.90;;;;;;5017689;28;19913;-69
2022/12/12 11:39:21;;;;;;;;;;;1.60;99.90;;;;;;5025227;28;19983;-69
2022/12/12 11:42:15;;;;;;;;;;;1.70;99.90;;;;;;5029863;28;19916;-70
2022/12/12 11:44:42;;;;;;;;;;;1.70;99.90;;;;;;5013339;28;19919;-70
2022/12/12 11:47:16;;;;;;;;;;;1.50;99.90;;;;;;5028740;28;19919;-70
2022/12/12 11:49:46;;;;;;;;;;;1.50;99.90;;;;;;5028064;28;19921;-70
2022/12/12 11:52:16;;;;;;;;;;;1.50;99.90;;;;;;5011941;28;19943;-70
2022/12/12 11:54:42;;;;;;;;;;;1.50;99.90;;;;;;5030761;28;19933;-70
2022/12/12 11:57:10;;;;;;;;;;;1.50;99.90;;;;;;5025421;28;19909;-70
2022/12/12 11:59:42;;;;;;;;;;;1.60;99.90;;;;;;5029271;28;19909;-70
2022/12/12 12:02:28;;;;;;;;;;;1.60;99.90;;;;;;5028375;28;19952;-65
2022/12/12 12:05:12;;;;;;;;;;;1.40;99.90;;;;;;5022703;28;19913;-66
2022/12/12 12:07:38;;;;;;;;;;;1.40;99.90;;;;;;5024394;28;19913;-65
2022/12/12 12:10:07;;;;;;;;;;;1.40;99.90;;;;;;5027821;28;19924;-65
2022/12/12 12:12:39;;;;;;;;;;;1.30;99.90;;;;;;5024511;28;20302;-66
2022/12/12 12:15:13;;;;;;;;;;;1.30;99.90;;;;;;5028640;28;19923;-65
2022/12/12 12:17:59;;;;;;;;;;;1.40;99.90;;;;;;5029898;28;19924;-66
2022/12/12 12:20:25;;;;;;;;;;;1.40;99.90;;;;;;5023179;28;20409;-66
2022/12/12 12:22:58;;;;;;;;;;;1.40;99.90;;;;;;5026278;28;19940;-73
2022/12/12 12:25:43;;;;;;;;;;;1.30;99.90;;;;;;5028517;28;19917;-72
2022/12/12 12:28:28;;;;;;;;;;;1.20;99.90;;;;;;5008722;28;19912;-73
2022/12/12 12:30:58;;;;;;;;;;;1.20;99.90;;;;;;5027385;28;19913;-71
2022/12/12 12:33:23;;;;;;;;;;;1.10;99.90;;;;;;5027736;28;20000;-72
2022/12/12 12:35:49;;;;;;;;;;;1.10;99.90;;;;;;5028636;28;19995;-71
2022/12/12 12:38:20;;;;;;;;;;;1.10;99.90;;;;;;5029108;28;19995;-72
2022/12/12 12:41:04;;;;;;;;;;;1.00;99.90;;;;;;5008254;28;19924;-72
2022/12/12 12:43:48;;;;;;;;;;;0.90;99.90;;;;;;5023394;28;19913;-73
2022/12/12 12:46:20;;;;;;;;;;;0.80;99.90;;;;;;5028312;28;19941;-70
2022/12/12 12:48:49;;;;;;;;;;;0.80;99.90;;;;;;5028509;28;19948;-71
2022/12/12 12:51:16;;;;;;;;;;;0.80;99.90;;;;;;5012033;28;20008;-70
2022/12/12 12:53:45;;;;;;;;;;;0.80;99.90;;;;;;5023709;28;20358;-72
2022/12/12 12:56:13;;;;;;;;;;;0.70;99.90;;;;;;5023783;28;20383;-74
2022/12/12 12:58:41;;;;;;;;;;;0.70;99.90;;;;;;5028026;28;19955;-66
2022/12/12 13:01:11;;;;;;;;;;;0.70;99.90;;;;;;5027958;28;20015;-66
2022/12/12 13:03:39;;;;;;;;;;;0.70;99.90;;;;;;5026148;28;19917;-66
2022/12/12 13:06:07;;;;;;;;;;;0.70;99.90;;;;;;5028299;28;19924;-65
2022/12/12 13:08:33;;;;;;;;;;;0.70;99.90;;;;;;5005604;28;20415;-66
2022/12/12 13:11:01;;;;;;;;;;;0.80;99.90;;;;;;5022457;28;20008;-64
2022/12/12 13:13:30;;;;;;;;;;;0.80;99.90;;;;;;5022437;28;19928;-64
2022/12/12 13:15:57;;;;;;;;;;;1.00;99.90;;;;;;5028224;28;20023;-64
2022/12/12 13:18:24;;;;;;;;;;;1.10;99.90;;;;;;5011373;28;19921;-65
2022/12/12 13:20:49;;;;;;;;;;;1.30;99.90;;;;;;4996978;28;19917;-66
2022/12/12 13:23:22;;;;;;;;;;;1.50;99.90;;;;;;5031216;28;20747;-66
2022/12/12 13:26:00;;;;;;;;;;;1.60;99.90;;;;;;5012047;28;19971;-66
2022/12/12 13:28:28;;;;;;;;;;;1.70;99.90;;;;;;5032074;28;19913;-65
2022/12/12 13:31:07;;;;;;;;;;;1.80;99.90;;;;;;5030356;28;19923;-72
2022/12/12 13:33:38;;;;;;;;;;;1.90;99.90;;;;;;5005697;28;19925;-71
2022/12/12 13:36:16;;;;;;;;;;;2.10;99.90;;;;;;5031539;28;19924;-71
2022/12/12 13:38:45;;;;;;;;;;;2.10;99.90;;;;;;5030306;28;19916;-71
2022/12/12 13:41:10;;;;;;;;;;;2.20;99.90;;;;;;5029419;28;19982;-71
2022/12/12 13:43:36;;;;;;;;;;;2.30;99.90;;;;;;5031681;28;20549;-72
2022/12/12 13:46:18;;;;;;;;;;;2.50;99.90;;;;;;5029437;28;20853;-75
2022/12/12 13:48:46;;;;;;;;;;;2.60;99.90;;;;;;5032384;28;19920;-72
2022/12/12 13:51:44;;;;;;;;;;;2.70;99.90;;;;;;5036425;28;20518;-71
2022/12/12 13:54:10;;;;;;;;;;;2.80;99.90;;;;;;5039757;28;19916;-73
2022/12/12 13:56:36;;;;;;;;;;;2.80;99.90;;;;;;5032411;28;19917;-73
2022/12/12 13:59:03;;;;;;;;;;;2.80;99.90;;;;;;5032202;28;20327;-72
2022/12/12 14:01:39;;;;;;;;;;;2.90;99.90;;;;;;5031882;28;19909;-73
2022/12/12 14:04:21;;;;;;;;;;;2.70;99.90;;;;;;5027522;28;19912;-75
2022/12/12 14:06:49;;;;;;;;;;;2.70;99.90;;;;;;5026638;28;19924;-69
2022/12/12 14:09:19;;;;;;;;;;;2.80;99.90;;;;;;5028079;28;19921;-68
2022/12/12 14:11:45;;;;;;;;;;;2.90;99.90;;;;;;5025932;28;19920;-69
2022/12/12 14:14:17;;;;;;;;;;;2.90;99.90;;;;;;5028570;28;19995;-68
2022/12/12 14:16:42;;;;;;;;;;;2.90;99.90;;;;;;5028049;28;19909;-69
2022/12/12 14:19:18;;;;;;;;;;;2.80;99.90;;;;;;5030775;28;19983;-69
2022/12/12 14:21:45;;;;;;;;;;;2.70;99.90;;;;;;5019370;28;19928;-69
2022/12/12 14:24:29;;;;;;;;;;;2.60;99.90;;;;;;5025513;28;19955;-69
2022/12/12 14:26:55;;;;;;;;;;;2.50;99.90;;;;;;5029395;28;19912;-69
2022/12/12 14:29:21;;;;;;;;;;;2.40;99.90;;;;;;5030547;28;19913;-68
2022/12/12 14:31:53;;;;;;;;;;;2.40;99.90;;;;;;5011387;28;20225;-69
2022/12/12 14:34:24;;;;;;;;;;;2.30;99.90;;;;;;5024674;28;19948;-68
2022/12/12 14:36:53;;;;;;;;;;;2.20;99.90;;;;;;5007637;28;20047;-68
2022/12/12 14:39:25;;;;;;;;;;;2.20;99.90;;;;;;5007365;28;20358;-69
2022/12/12 14:41:51;;;;;;;;;;;2.10;99.90;;;;;;5012227;28;19913;-69
2022/12/12 14:44:24;;;;;;;;;;;2.00;99.90;;;;;;5029964;28;19944;-68
2022/12/12 14:46:49;;;;;;;;;;;1.90;99.90;;;;;;5016224;28;19921;-68